Time;durP1;ratioP1;P1;durP2;ratioP2;P2;SDS_P1;SDS_P2;PMS_P1;PMS_P2;Temp;Humidity;BMP_temperature;BMP_pressure;BME280_temperature;BME280_humidity;BME280_pressure;Samples;Min_cycle;Max_cycle;Signal;HPM_P1;HPM_P2
2022/11/29 00:01:22;;;;;;;22.77;16.40;;;;;;;4.10;100.00;96114.59;5035140;27;101785;-65
2022/11/29 00:03:53;;;;;;;27.13;18.20;;;;;;;4.08;100.00;96111.38;5031215;27;102466;-64
2022/11/29 00:06:35;;;;;;;27.93;19.63;;;;;;;4.05;100.00;96111.81;5030211;28;101722;-65
2022/11/29 00:09:05;;;;;;;25.73;17.87;;;;;;;4.08;100.00;96108.72;5030231;28;105632;-64
2022/11/29 00:14:33;;;;;;;22.13;16.57;;;;;;;4.13;100.00;96103.63;4952489;28;102041;-65
2022/11/29 00:17:03;;;;;;;19.27;14.77;;;;;;;4.08;100.00;96101.66;4969402;28;102984;-65
2022/11/29 00:19:32;;;;;;;17.67;15.03;;;;;;;4.03;100.00;96109.38;4985160;28;105729;-65
2022/11/29 00:22:04;;;;;;;19.93;14.43;;;;;;;4.07;100.00;96113.19;5029637;28;101994;-65
2022/11/29 00:24:32;;;;;;;19.63;14.90;;;;;;;4.02;100.00;96107.78;5032992;28;104932;-64
2022/11/29 00:27:00;;;;;;;19.60;15.50;;;;;;;4.03;100.00;96111.19;5031516;27;101811;-65
2022/11/29 00:29:27;;;;;;;21.13;15.53;;;;;;;4.10;100.00;96104.06;5030010;28;105975;-65
2022/11/29 00:31:59;;;;;;;22.43;15.67;;;;;;;4.05;100.00;96106.53;5029431;28;106735;-65
2022/11/29 00:34:26;;;;;;;20.13;15.27;;;;;;;4.15;100.00;96104.22;5031397;28;101727;-65
2022/11/29 00:36:56;;;;;;;20.07;15.90;;;;;;;4.17;100.00;96104.81;5031046;27;102339;-65
2022/11/29 00:39:23;;;;;;;19.93;15.37;;;;;;;4.10;100.00;96110.13;5030808;27;102561;-65
2022/11/29 00:41:52;;;;;;;19.23;14.97;;;;;;;4.07;100.00;96101.88;5029853;28;102262;-65
2022/11/29 00:44:19;;;;;;;17.83;14.53;;;;;;;4.01;100.00;96100.09;5029782;28;105074;-65
2022/11/29 00:46:46;;;;;;;19.23;14.97;;;;;;;4.00;100.00;96116.91;5034013;27;102406;-65
2022/11/29 00:49:12;;;;;;;20.30;16.03;;;;;;;3.98;100.00;96103.97;5029695;28;104922;-65
2022/11/29 00:51:39;;;;;;;19.57;16.00;;;;;;;3.96;100.00;96103.38;5030566;27;102678;-65
2022/11/29 00:54:08;;;;;;;16.50;14.27;;;;;;;4.00;100.00;96106.38;5031007;27;101832;-65
2022/11/29 00:56:35;;;;;;;18.70;14.77;;;;;;;4.05;100.00;96106.53;4990902;28;101902;-64
2022/11/29 00:59:01;;;;;;;17.87;15.10;;;;;;;4.06;100.00;96108.16;4988862;28;105983;-65
2022/11/29 01:01:28;;;;;;;23.30;16.70;;;;;;;4.05;100.00;96101.28;4990590;28;101810;-64
2022/11/29 01:03:55;;;;;;;20.90;16.63;;;;;;;4.03;100.00;96105.94;4990291;28;103008;-65
2022/11/29 01:06:26;;;;;;;21.73;16.47;;;;;;;4.04;100.00;96118.09;4988756;28;105318;-65
2022/11/29 01:08:53;;;;;;;21.33;15.57;;;;;;;3.99;100.00;96115.31;4994275;28;101706;-65
2022/11/29 01:11:23;;;;;;;19.33;16.73;;;;;;;3.96;100.00;96111.28;4989985;28;102787;-65
2022/11/29 01:13:55;;;;;;;21.53;16.70;;;;;;;3.96;100.00;96106.03;4989097;28;102086;-65
2022/11/29 01:16:22;;;;;;;20.90;16.17;;;;;;;4.04;100.00;96110.22;4990738;28;102791;-65
2022/11/29 01:18:49;;;;;;;18.23;16.13;;;;;;;4.13;100.00;96114.16;4989999;28;102484;-65
2022/11/29 01:21:18;;;;;;;19.60;16.30;;;;;;;4.10;100.00;96114.59;4990511;28;101779;-65
2022/11/29 01:23:47;;;;;;;20.67;16.57;;;;;;;4.01;100.00;96111.44;4989198;28;105703;-65
2022/11/29 01:26:17;;;;;;;20.90;16.33;;;;;;;4.05;100.00;96111.81;4990216;28;102445;-65
2022/11/29 01:28:49;;;;;;;18.63;15.90;;;;;;;3.98;100.00;96113.69;4993807;28;101871;-65
2022/11/29 01:31:18;;;;;;;20.40;16.17;;;;;;;3.93;100.00;96113.53;4990173;28;102628;-65
2022/11/29 01:34:16;;;;;;;19.13;15.73;;;;;;;4.08;100.00;96121.88;4988867;28;102113;-65
2022/11/29 01:36:44;;;;;;;21.23;16.20;;;;;;;4.10;100.00;96117.22;4990325;28;102847;-65
2022/11/29 01:39:10;;;;;;;20.57;16.50;;;;;;;4.08;100.00;96116.63;4989757;28;102771;-65
2022/11/29 01:41:38;;;;;;;19.77;16.23;;;;;;;4.06;100.00;96116.88;4988685;28;102149;-65
2022/11/29 01:44:28;;;;;;;21.73;16.50;;;;;;;4.04;100.00;96111.00;4988915;28;105406;-65
2022/11/29 01:46:55;;;;;;;21.00;16.90;;;;;;;4.03;100.00;96112.03;4989079;28;102846;-65
2022/11/29 01:49:27;;;;;;;21.37;16.47;;;;;;;4.03;100.00;96113.84;4990095;28;101946;-65
2022/11/29 01:52:04;;;;;;;20.73;16.53;;;;;;;4.06;100.00;96114.22;4993348;28;102839;-65
2022/11/29 01:54:32;;;;;;;19.07;15.47;;;;;;;4.04;100.00;96112.84;4996311;28;101929;-65
2022/11/29 01:56:59;;;;;;;18.43;15.83;;;;;;;3.99;100.00;96110.03;5028599;28;105709;-65
2022/11/29 01:59:29;;;;;;;23.37;17.20;;;;;;;4.06;100.00;96116.03;5029420;27;102797;-65
2022/11/29 02:02:08;;;;;;;19.83;16.33;;;;;;;4.06;100.00;96116.03;5028411;28;102013;-65
2022/11/29 02:04:37;;;;;;;21.87;16.33;;;;;;;4.09;100.00;96108.53;5028778;28;105185;-65
2022/11/29 02:07:05;;;;;;;20.50;16.83;;;;;;;4.05;100.00;96117.06;5028976;28;103132;-65
2022/11/29 02:09:32;;;;;;;21.33;17.07;;;;;;;4.12;100.00;96108.09;5028474;28;101729;-65
2022/11/29 02:12:09;;;;;;;24.03;16.80;;;;;;;4.16;100.00;96111.09;5028211;28;105716;-65
2022/11/29 02:14:49;;;;;;;21.57;17.27;;;;;;;4.13;100.00;96101.81;5032632;27;102767;-65
2022/11/29 02:17:25;;;;;;;24.33;17.97;;;;;;;4.09;100.00;96105.09;5029573;27;102534;-65
2022/11/29 02:20:28;;;;;;;22.07;16.73;;;;;;;4.10;100.00;96101.44;5027750;28;105275;-65
2022/11/29 02:23:00;;;;;;;18.70;16.07;;;;;;;4.03;100.00;96103.31;5029747;27;101676;-65
2022/11/29 02:25:44;;;;;;;19.87;16.77;;;;;;;3.97;100.00;96107.63;5028436;28;105173;-65
2022/11/29 02:28:56;;;;;;;19.60;15.77;;;;;;;4.04;100.00;96107.56;5029517;27;102434;-65
2022/11/29 02:31:45;;;;;;;20.10;16.33;;;;;;;3.96;100.00;96102.56;4992933;27;103044;-65
2022/11/29 02:34:50;;;;;;;21.40;17.00;;;;;;;3.95;100.00;96108.88;5028200;28;104463;-65
2022/11/29 02:37:32;;;;;;;21.00;16.50;;;;;;;3.93;100.00;96101.19;5014553;28;105517;-65
2022/11/29 02:40:23;;;;;;;22.83;18.30;;;;;;;3.91;100.00;96110.31;5031801;28;102023;-65
2022/11/29 02:43:30;;;;;;;20.77;17.07;;;;;;;3.96;100.00;96102.56;5027310;28;105445;-65
2022/11/29 02:46:09;;;;;;;21.53;17.93;;;;;;;4.11;100.00;96106.50;5029580;27;101652;-65
2022/11/29 02:48:53;;;;;;;20.70;17.00;;;;;;;4.04;100.00;96112.84;5029559;27;102573;-65
2022/11/29 02:51:29;;;;;;;21.37;18.10;;;;;;;4.00;100.00;96109.84;5027393;28;105496;-65
2022/11/29 02:54:01;;;;;;;23.33;17.57;;;;;;;3.96;100.00;96108.66;5029452;27;101687;-65
2022/11/29 02:56:34;;;;;;;19.90;16.17;;;;;;;3.97;100.00;96109.44;5027820;28;105270;-65
2022/11/29 02:59:06;;;;;;;21.13;17.20;;;;;;;4.03;100.00;96119.91;5027224;28;104059;-65
2022/11/29 03:01:40;;;;;;;19.97;16.83;;;;;;;3.99;100.00;96110.84;5027643;28;101854;-65
2022/11/29 03:04:14;;;;;;;23.10;17.43;;;;;;;3.98;100.00;96116.34;5032443;27;102887;-65
2022/11/29 03:07:02;;;;;;;22.30;18.23;;;;;;;4.03;100.00;96121.72;5029157;27;101696;-65
2022/11/29 03:09:38;;;;;;;21.33;16.10;;;;;;;3.99;100.00;96116.09;5027584;28;105139;-65
2022/11/29 03:12:18;;;;;;;24.23;16.93;;;;;;;4.11;100.00;96121.47;5028257;27;102928;-65
2022/11/29 03:14:56;;;;;;;20.13;16.70;;;;;;;4.08;100.00;96116.63;5027550;28;101904;-65
2022/11/29 03:17:32;;;;;;;19.73;15.77;;;;;;;4.03;100.00;96127.81;5027545;28;103499;-65
2022/11/29 03:20:26;;;;;;;19.70;15.30;;;;;;;3.97;100.00;96125.22;5027025;28;105236;-65
2022/11/29 03:23:13;;;;;;;19.33;15.27;;;;;;;3.90;100.00;96127.13;5029073;28;101628;-65
2022/11/29 03:25:45;;;;;;;16.43;14.47;;;;;;;3.84;100.00;96141.94;5029242;27;102487;-65
2022/11/29 03:28:18;;;;;;;19.07;15.07;;;;;;;3.80;100.00;96130.22;5033244;27;101836;-65
2022/11/29 03:30:53;;;;;;;21.53;16.07;;;;;;;3.87;100.00;96135.44;5032425;27;102382;-65
2022/11/29 03:33:36;;;;;;;18.40;15.07;;;;;;;3.86;100.00;96134.63;5031899;27;102812;-65
2022/11/29 03:36:11;;;;;;;19.57;15.43;;;;;;;3.88;100.00;96140.47;5032167;27;102007;-65
2022/11/29 03:38:42;;;;;;;21.17;15.90;;;;;;;3.89;100.00;96138.66;5032211;27;102355;-65
2022/11/29 03:41:19;;;;;;;22.00;16.77;;;;;;;3.87;100.00;96140.72;5031712;27;102782;-65
2022/11/29 03:43:52;;;;;;;21.57;16.87;;;;;;;3.88;100.00;96144.94;5030516;28;101852;-65
2022/11/29 03:46:28;;;;;;;21.13;16.80;;;;;;;3.83;100.00;96145.56;5030689;28;104861;-65
2022/11/29 03:49:00;;;;;;;21.03;16.47;;;;;;;3.85;100.00;96148.00;5035121;27;101891;-65
2022/11/29 03:51:38;;;;;;;25.97;17.77;;;;;;;3.90;100.00;96153.41;5032142;27;102298;-65
2022/11/29 03:54:11;;;;;;;18.23;14.97;;;;;;;3.98;100.00;96147.91;5029986;28;105993;-65
2022/11/29 03:56:40;;;;;;;20.13;15.63;;;;;;;3.99;100.00;96152.13;5031874;28;101921;-65
2022/11/29 03:59:23;;;;;;;19.57;15.83;;;;;;;3.99;100.00;96149.50;5031664;27;102347;-65
2022/11/29 04:02:23;;;;;;;18.53;15.50;;;;;;;4.05;100.00;96146.00;5029814;28;105716;-65
2022/11/29 04:05:26;;;;;;;20.63;16.03;;;;;;;4.02;100.00;96144.63;5027030;28;102014;-65
2022/11/29 04:08:10;;;;;;;20.60;15.87;;;;;;;4.00;100.00;96145.84;5031715;27;102316;-65
2022/11/29 04:11:14;;;;;;;20.50;15.63;;;;;;;4.00;100.00;96153.75;5031435;27;102562;-65
2022/11/29 04:14:11;;;;;;;19.90;15.30;;;;;;;4.10;100.00;96146.19;5033450;28;101864;-65
2022/11/29 04:17:19;;;;;;;17.60;15.20;;;;;;;4.12;100.00;96149.38;5022097;27;103221;-65
2022/11/29 04:20:26;;;;;;;20.10;15.30;;;;;;;4.18;100.00;96141.44;5010855;27;101890;-65
2022/11/29 04:23:15;;;;;;;20.20;15.90;;;;;;;4.14;100.00;96148.16;5031638;27;102999;-65
2022/11/29 04:26:26;;;;;;;17.47;14.00;;;;;;;4.25;100.00;96146.66;5029609;28;105663;-65
2022/11/29 04:29:23;;;;;;;18.90;15.10;;;;;;;4.22;100.00;96150.53;4945286;27;101903;-65
2022/11/29 04:32:14;;;;;;;17.23;14.27;;;;;;;4.27;100.00;96147.22;5024408;28;105118;-65
2022/11/29 04:35:02;;;;;;;19.73;15.30;;;;;;;4.25;100.00;96144.03;5030757;27;104942;-65
2022/11/29 04:37:45;;;;;;;19.37;15.33;;;;;;;4.22;100.00;96145.25;5029766;28;101789;-65
2022/11/29 04:40:51;;;;;;;19.43;14.63;;;;;;;4.24;100.00;96147.66;5033918;27;102589;-65
2022/11/29 04:44:01;;;;;;;19.70;15.33;;;;;;;4.18;100.00;96145.88;5029610;28;101764;-65
2022/11/29 04:47:05;;;;;;;19.83;16.53;;;;;;;4.17;100.00;96157.44;5029784;28;105583;-65
2022/11/29 04:49:53;;;;;;;18.63;16.20;;;;;;;4.14;100.00;96157.88;5029019;28;105698;-65
2022/11/29 04:52:50;;;;;;;19.90;16.50;;;;;;;4.11;100.00;96158.31;5031221;27;101615;-65
2022/11/29 04:55:28;;;;;;;19.17;15.80;;;;;;;4.06;100.00;96160.78;5029075;28;105494;-65
2022/11/29 04:58:04;;;;;;;19.17;16.23;;;;;;;4.08;100.00;96158.72;5029136;28;105665;-65
2022/11/29 05:00:39;;;;;;;20.70;15.73;;;;;;;4.13;100.00;96164.16;5031122;27;101746;-65
2022/11/29 05:03:16;;;;;;;22.67;16.67;;;;;;;4.23;100.00;96161.84;5029715;28;103985;-65
2022/11/29 05:05:51;;;;;;;20.13;16.03;;;;;;;4.24;100.00;96166.06;5032458;28;103761;-65
2022/11/29 05:08:27;;;;;;;19.67;17.13;;;;;;;4.21;100.00;96163.88;5029246;28;106012;-65
2022/11/29 05:11:03;;;;;;;21.97;16.97;;;;;;;4.22;100.00;96161.03;5028640;28;105353;-65
2022/11/29 05:13:39;;;;;;;21.20;16.97;;;;;;;4.21;100.00;96169.16;5031005;27;101656;-65
2022/11/29 05:16:31;;;;;;;21.63;16.80;;;;;;;4.26;100.00;96169.31;5029490;28;105315;-65
2022/11/29 05:19:16;;;;;;;22.70;17.37;;;;;;;4.30;100.00;96170.47;5028700;28;104958;-65
2022/11/29 05:22:02;;;;;;;25.17;17.03;;;;;;;4.21;100.00;96177.03;5030813;27;101662;-65
2022/11/29 05:24:44;;;;;;;23.27;17.10;;;;;;;4.25;100.00;96167.69;5030821;27;102341;-65
2022/11/29 05:27:18;;;;;;;23.50;17.00;;;;;;;4.25;100.00;96171.13;5030066;27;102718;-65
2022/11/29 05:29:54;;;;;;;22.13;16.63;;;;;;;4.21;100.00;96169.16;5032554;28;101939;-65
2022/11/29 05:32:33;;;;;;;24.13;16.93;;;;;;;4.18;100.00;96174.84;5028124;28;105866;-65
2022/11/29 05:35:44;;;;;;;20.37;16.47;;;;;;;4.29;100.00;96171.50;5030399;27;101710;-65
2022/11/29 05:38:24;;;;;;;20.57;15.43;;;;;;;4.33;100.00;96170.88;4987634;28;103813;-65
2022/11/29 05:41:07;;;;;;;22.17;16.30;;;;;;;4.38;100.00;96175.47;5022897;27;102638;-65
2022/11/29 05:43:48;;;;;;;19.33;15.67;;;;;;;4.42;100.00;96176.66;5030325;28;101748;-65
2022/11/29 05:46:22;;;;;;;22.90;16.50;;;;;;;4.35;100.00;96175.88;5030277;27;102477;-65
2022/11/29 05:48:58;;;;;;;19.17;16.07;;;;;;;4.30;100.00;96178.34;5029810;27;101950;-65
2022/11/29 05:51:39;;;;;;;21.37;16.63;;;;;;;4.27;100.00;96176.97;5032396;27;101718;-65
2022/11/29 05:54:16;;;;;;;20.50;16.47;;;;;;;4.28;100.00;96178.59;5028189;28;105350;-65
2022/11/29 05:56:51;;;;;;;23.60;17.10;;;;;;;4.30;100.00;96183.63;5030359;27;101753;-65
2022/11/29 05:59:21;;;;;;;19.10;15.50;;;;;;;4.39;100.00;96177.06;5030159;27;102328;-65
2022/11/29 06:01:55;;;;;;;21.60;16.70;;;;;;;4.33;100.00;96180.56;5028014;28;105298;-65
2022/11/29 06:04:28;;;;;;;19.97;15.37;;;;;;;4.41;100.00;96177.66;5028516;28;101999;-64
2022/11/29 06:07:10;;;;;;;20.30;16.73;;;;;;;4.43;100.00;96181.69;5028576;28;104749;-65
2022/11/29 06:09:45;;;;;;;21.57;16.40;;;;;;;4.45;100.00;96181.47;5027843;28;105782;-64
2022/11/29 06:12:21;;;;;;;19.47;15.97;;;;;;;4.35;100.00;96181.16;5029922;27;101885;-64
2022/11/29 06:15:26;;;;;;;21.10;16.47;;;;;;;4.37;100.00;96190.44;5032972;27;102731;-64
2022/11/29 06:18:05;;;;;;;31.57;20.80;;;;;;;4.42;100.00;96187.19;4998168;27;101850;-65
2022/11/29 06:20:49;;;;;;;109.10;52.50;;;;;;;4.33;100.00;96185.84;5029571;27;102343;-64
2022/11/29 06:23:57;;;;;;;117.63;54.00;;;;;;;4.32;100.00;96186.88;5029071;27;103000;-64
2022/11/29 06:26:55;;;;;;;92.40;45.40;;;;;;;4.27;100.00;96187.50;5021305;28;101914;-64
2022/11/29 06:29:29;;;;;;;73.10;38.37;;;;;;;4.27;100.00;96184.06;5008026;27;102353;-65
2022/11/29 06:32:07;;;;;;;49.93;30.70;;;;;;;4.27;100.00;96184.88;5029161;27;102409;-64
2022/11/29 06:34:42;;;;;;;53.93;33.60;;;;;;;4.33;100.00;96194.56;5029659;27;101702;-64
2022/11/29 06:37:27;;;;;;;46.83;32.87;;;;;;;4.34;100.00;96195.34;5028077;28;105256;-64
2022/11/29 06:39:56;;;;;;;49.17;32.63;;;;;;;4.37;100.00;96197.56;5031091;28;105432;-64
2022/11/29 06:42:24;;;;;;;49.07;32.80;;;;;;;4.34;100.00;96200.59;5029347;27;102329;-64
2022/11/29 06:44:52;;;;;;;55.97;36.07;;;;;;;4.33;100.00;96196.38;5028830;27;103382;-64
2022/11/29 06:47:27;;;;;;;53.50;34.87;;;;;;;4.31;100.00;96201.06;5027891;28;101909;-64
2022/11/29 06:49:59;;;;;;;50.13;31.97;;;;;;;4.30;100.00;96197.59;5029529;27;102313;-65
2022/11/29 06:52:47;;;;;;;41.63;29.17;;;;;;;4.42;100.00;96202.97;5028996;27;102627;-64
2022/11/29 06:55:23;;;;;;;41.43;29.77;;;;;;;4.53;100.00;96202.25;5029173;27;101885;-64
2022/11/29 06:58:01;;;;;;;42.40;30.60;;;;;;;4.53;100.00;96199.63;5029458;27;102281;-64
2022/11/29 07:00:37;;;;;;;44.50;35.17;;;;;;;4.53;100.00;96200.41;5028751;27;102564;-65
2022/11/29 07:03:37;;;;;;;44.10;34.00;;;;;;;4.53;100.00;96197.00;5035418;27;101739;-65
2022/11/29 07:06:11;;;;;;;48.07;37.57;;;;;;;4.55;100.00;96198.41;4986972;28;105964;-65
2022/11/29 07:08:40;;;;;;;49.87;37.20;;;;;;;4.67;100.00;96207.19;5031018;28;102411;-64
2022/11/29 07:11:11;;;;;;;43.17;33.40;;;;;;;4.58;100.00;96211.09;5032143;27;102947;-65
2022/11/29 07:13:40;;;;;;;40.03;30.90;;;;;;;4.52;100.00;96213.78;5032099;27;103115;-64
2022/11/29 07:16:17;;;;;;;36.50;25.63;;;;;;;4.61;100.00;96207.25;5032599;27;102039;-64
2022/11/29 07:18:54;;;;;;;29.97;22.97;;;;;;;4.62;100.00;96208.84;5031055;28;103726;-64
2022/11/29 07:21:27;;;;;;;28.93;22.53;;;;;;;4.57;100.00;96211.31;5030485;28;105834;-65
2022/11/29 07:24:03;;;;;;;27.37;21.10;;;;;;;4.52;100.00;96219.88;5032508;27;101659;-64
2022/11/29 07:26:37;;;;;;;24.67;19.53;;;;;;;4.62;100.00;96211.47;5035543;27;102288;-64
2022/11/29 07:29:19;;;;;;;23.97;19.30;;;;;;;4.58;100.00;96212.94;5032051;27;101881;-64
2022/11/29 07:32:13;;;;;;;25.33;19.87;;;;;;;4.52;100.00;96219.88;5030886;28;105327;-64
2022/11/29 07:34:51;;;;;;;25.53;18.80;;;;;;;4.59;100.00;96214.56;5030359;28;105268;-64
2022/11/29 07:37:29;;;;;;;23.77;17.37;;;;;;;4.58;100.00;96212.94;5030560;28;101990;-64
2022/11/29 07:40:02;;;;;;;27.10;19.23;;;;;;;4.56;100.00;96215.81;5032374;27;102839;-64
2022/11/29 07:43:00;;;;;;;27.00;19.10;;;;;;;4.56;100.00;96214.97;5031834;28;102548;-64
2022/11/29 07:45:30;;;;;;;23.60;17.63;;;;;;;4.60;100.00;96216.97;5032220;28;101682;-65
2022/11/29 07:47:57;;;;;;;22.30;18.30;;;;;;;4.58;100.00;96208.47;5030688;28;106345;-65
2022/11/29 07:50:25;;;;;;;23.60;17.83;;;;;;;4.59;100.00;96212.72;5033627;28;105714;-65
2022/11/29 07:53:10;;;;;;;25.50;17.93;;;;;;;4.58;100.00;96220.84;5030517;28;105311;-64
2022/11/29 07:55:37;;;;;;;21.17;17.50;;;;;;;4.53;100.00;96218.84;5030928;27;102627;-65
2022/11/29 07:58:06;;;;;;;22.63;17.57;;;;;;;4.58;100.00;96220.84;5030393;28;101848;-64
2022/11/29 08:00:32;;;;;;;20.23;16.97;;;;;;;4.68;100.00;96223.78;5031814;27;102862;-64
2022/11/29 08:03:01;;;;;;;23.37;17.80;;;;;;;4.65;100.00;96213.69;5031286;27;103159;-64
2022/11/29 08:05:33;;;;;;;22.03;18.17;;;;;;;4.65;100.00;96221.59;5031503;27;102120;-64
2022/11/29 08:08:00;;;;;;;23.20;18.20;;;;;;;4.66;100.00;96228.47;5030333;28;105212;-64
2022/11/29 08:10:27;;;;;;;22.23;17.17;;;;;;;4.80;100.00;96228.09;5034661;27;102484;-65
2022/11/29 08:16:19;;;;;;;20.07;17.37;;;;;;;4.99;100.00;96226.28;5029804;28;105734;-65
2022/11/29 08:18:46;;;;;;;25.17;20.50;;;;;;;4.92;100.00;96226.34;5031318;27;101820;-64
2022/11/29 08:21:16;;;;;;;24.83;20.23;;;;;;;4.88;100.00;96229.66;5031580;27;102297;-64
2022/11/29 08:23:49;;;;;;;26.40;20.97;;;;;;;4.83;100.00;96222.41;5030979;27;102579;-64
2022/11/29 08:26:17;;;;;;;24.17;19.23;;;;;;;4.77;100.00;96228.56;5031703;27;101649;-65
2022/11/29 08:28:44;;;;;;;22.83;19.33;;;;;;;4.73;100.00;96222.09;5029961;28;105125;-64
2022/11/29 08:31:12;;;;;;;22.23;18.27;;;;;;;4.77;100.00;96228.56;5030994;28;102507;-65
2022/11/29 08:34:12;;;;;;;22.17;19.73;;;;;;;4.85;100.00;96225.63;5034728;27;101791;-65
2022/11/29 08:36:41;;;;;;;20.80;18.00;;;;;;;4.91;100.00;96227.38;5030802;27;102656;-65
2022/11/29 08:39:08;;;;;;;22.37;18.37;;;;;;;4.87;100.00;96228.06;5031402;27;101645;-65
2022/11/29 08:41:34;;;;;;;22.23;18.90;;;;;;;4.72;100.00;96231.03;5031174;27;102462;-65
2022/11/29 08:44:01;;;;;;;24.87;19.10;;;;;;;4.78;100.00;96234.63;5029101;28;105444;-64
2022/11/29 08:49:09;;;;;;;22.60;18.33;;;;;;;4.86;100.00;96232.50;5030686;28;102411;-65
2022/11/29 08:51:37;;;;;;;22.83;18.60;;;;;;;4.86;100.00;96234.34;5029062;28;104418;-65
2022/11/29 08:54:03;;;;;;;22.03;17.80;;;;;;;4.93;100.00;96229.81;5029444;28;102043;-64
2022/11/29 08:56:29;;;;;;;23.07;18.13;;;;;;;4.95;100.00;96235.66;5033835;28;102908;-64
2022/11/29 08:58:56;;;;;;;18.87;16.83;;;;;;;5.00;100.00;96241.06;5030983;27;101860;-65
2022/11/29 09:01:23;;;;;;;21.37;16.70;;;;;;;5.13;100.00;96247.00;5030779;27;102364;-65
2022/11/29 09:04:06;;;;;;;18.50;15.93;;;;;;;5.02;100.00;96242.47;5030204;28;102976;-64
2022/11/29 09:06:41;;;;;;;20.20;17.30;;;;;;;5.16;100.00;96243.13;5029500;28;101742;-64
2022/11/29 09:09:08;;;;;;;19.77;16.20;;;;;;;5.16;100.00;96236.03;5029302;28;105425;-64
2022/11/29 09:11:36;;;;;;;18.10;15.70;;;;;;;5.12;100.00;96247.25;5028626;28;106346;-65
2022/11/29 09:14:05;;;;;;;20.30;16.77;;;;;;;5.03;100.00;96251.19;5030792;27;101915;-64
2022/11/29 09:16:34;;;;;;;19.03;16.23;;;;;;;5.19;100.00;96253.25;5029124;28;105155;-64
2022/11/29 09:19:01;;;;;;;17.73;15.83;;;;;;;5.27;100.00;96250.31;5032053;28;105784;-64
2022/11/29 09:21:30;;;;;;;18.77;15.40;;;;;;;5.32;100.00;96253.09;5030470;27;102923;-65
2022/11/29 09:24:00;;;;;;;18.27;15.53;;;;;;;5.32;100.00;96255.72;5029896;27;102497;-65
2022/11/29 09:26:29;;;;;;;17.87;14.93;;;;;;;5.40;100.00;96255.44;5029066;28;101905;-65
2022/11/29 09:28:59;;;;;;;15.53;12.60;;;;;;;5.32;100.00;96253.91;5030340;27;102375;-65
2022/11/29 09:31:28;;;;;;;16.67;12.57;;;;;;;5.36;100.00;96249.78;5029788;28;102728;-65
2022/11/29 09:33:55;;;;;;;17.63;13.27;;;;;;;5.40;100.00;96252.78;5028928;28;101849;-65
2022/11/29 09:36:33;;;;;;;15.53;12.60;;;;;;;5.49;100.00;96248.81;5030302;27;102349;-64
2022/11/29 09:39:02;;;;;;;13.40;11.43;;;;;;;5.42;100.00;96258.66;5029898;27;103319;-65
2022/11/29 09:41:52;;;;;;;11.20;9.77;;;;;;;5.23;100.00;96249.16;5033700;27;101830;-64
2022/11/29 09:44:26;;;;;;;12.17;10.80;;;;;;;5.15;100.00;96252.06;5030557;27;102671;-64
2022/11/29 09:47:00;;;;;;;11.80;10.30;;;;;;;5.31;100.00;96247.03;5028911;28;101746;-64
2022/11/29 09:49:44;;;;;;;12.63;10.10;;;;;;;5.39;100.00;96253.81;5030012;27;103861;-64
2022/11/29 09:52:32;;;;;;;11.50;10.40;;;;;;;5.48;100.00;96247.22;5029712;27;102430;-65
2022/11/29 09:55:09;;;;;;;10.97;9.87;;;;;;;5.55;100.00;96245.28;5029993;27;101952;-64
2022/11/29 09:57:38;;;;;;;12.00;10.30;;;;;;;5.57;100.00;96251.94;5030660;27;102320;-63
2022/11/29 10:00:14;;;;;;;12.83;10.40;;;;;;;5.60;100.00;96242.78;5028919;27;102626;-64
2022/11/29 10:02:50;;;;;;;10.13;9.03;;;;;;;5.58;100.00;96250.13;5029896;27;102075;-64
2022/11/29 10:05:27;;;;;;;9.60;7.97;;;;;;;5.50;100.00;96251.22;5033344;27;102895;-64
2022/11/29 10:08:00;;;;;;;9.57;8.17;;;;;;;5.63;100.00;96239.72;5030608;28;101687;-64
2022/11/29 10:10:36;;;;;;;8.00;7.20;;;;;;;5.61;100.00;96242.56;5029091;28;105158;-65
2022/11/29 10:13:15;;;;;;;8.53;7.67;;;;;;;5.52;100.00;96243.91;5028319;28;103938;-64
2022/11/29 10:15:45;;;;;;;8.97;8.03;;;;;;;5.49;100.00;96246.19;5030754;27;101699;-64
2022/11/29 10:18:19;;;;;;;8.60;7.70;;;;;;;5.53;100.00;96239.44;5030781;27;102864;-64
2022/11/29 10:20:49;;;;;;;7.67;6.97;;;;;;;5.57;100.00;96240.63;5030294;27;102510;-65
2022/11/29 10:23:24;;;;;;;7.33;6.57;;;;;;;5.49;100.00;96244.34;5029147;28;101850;-64
2022/11/29 10:25:54;;;;;;;7.53;6.10;;;;;;;5.75;100.00;96232.66;5031919;28;106499;-64
2022/11/29 10:28:22;;;;;;;7.43;6.73;;;;;;;5.72;100.00;96235.75;5028974;28;101824;-65
2022/11/29 10:30:53;;;;;;;7.10;6.37;;;;;;;5.73;100.00;96232.09;5030273;27;102281;-65
2022/11/29 10:33:28;;;;;;;7.70;6.70;;;;;;;5.77;100.00;96231.41;5028631;28;105467;-65
2022/11/29 10:36:18;;;;;;;7.43;6.70;;;;;;;5.89;100.00;96239.41;5030571;27;101812;-65
2022/11/29 10:38:47;;;;;;;6.53;6.00;;;;;;;6.12;100.00;96237.59;5034136;27;102303;-64
2022/11/29 10:41:19;;;;;;;6.27;5.77;;;;;;;5.96;100.00;96234.81;5033459;27;103115;-65
2022/11/29 10:44:03;;;;;;;6.23;5.63;;;;;;;6.05;100.00;96222.94;5032663;28;101875;-65
2022/11/29 10:46:31;;;;;;;6.90;6.20;;;;;;;6.03;100.00;96225.78;5034189;27;102632;-65
2022/11/29 10:49:00;;;;;;;6.40;5.80;;;;;;;6.03;100.00;96230.25;5035425;28;105452;-65
2022/11/29 10:51:28;;;;;;;6.73;6.13;;;;;;;5.92;100.00;96228.38;5032441;28;105719;-65
2022/11/29 10:53:56;;;;;;;6.10;5.43;;;;;;;5.97;100.00;96225.88;5031755;28;105441;-65
2022/11/29 10:56:28;;;;;;;5.03;4.53;;;;;;;5.88;100.00;96227.22;5033547;27;102093;-65
2022/11/29 10:59:01;;;;;;;5.83;5.23;;;;;;;5.93;100.00;96229.97;5032438;28;105596;-65
2022/11/29 11:01:29;;;;;;;7.33;5.40;;;;;;;6.06;100.00;96233.22;5031837;28;105854;-65
2022/11/29 11:03:59;;;;;;;6.67;5.53;;;;;;;6.00;100.00;96230.72;5033665;27;101788;-66
2022/11/29 11:06:54;;;;;;;4.83;3.93;;;;;;;5.77;100.00;96225.31;5033336;27;101643;-66
2022/11/29 11:09:26;;;;;;;3.50;3.20;;;;;;;5.93;100.00;96225.53;5013185;28;105645;-66
2022/11/29 11:12:07;;;;;;;2.97;2.77;;;;;;;6.17;100.00;96231.66;5035605;28;101786;-66
2022/11/29 11:14:37;;;;;;;3.63;3.30;;;;;;;6.25;100.00;96228.69;5031128;28;105975;-66
2022/11/29 11:17:24;;;;;;;2.70;2.50;;;;;;;6.24;100.00;96233.19;5033675;27;101933;-66
2022/11/29 11:19:56;;;;;;;2.90;2.70;;;;;;;6.16;100.00;96230.84;5033669;27;102350;-66
2022/11/29 11:22:39;;;;;;;2.80;2.60;;;;;;;6.21;100.00;96228.34;5032860;27;102685;-66
2022/11/29 11:25:23;;;;;;;2.90;2.70;;;;;;;6.30;100.00;96226.16;5031995;28;101815;-66
2022/11/29 11:27:53;;;;;;;3.63;3.33;;;;;;;6.30;100.00;96231.44;5031980;28;105219;-66
2022/11/29 11:30:22;;;;;;;3.07;2.80;;;;;;;6.10;100.00;96234.41;5031372;28;105916;-66
2022/11/29 11:33:19;;;;;;;2.90;2.70;;;;;;;6.29;100.00;96220.09;5031847;28;101888;-66
2022/11/29 11:36:05;;;;;;;3.17;2.97;;;;;;;6.39;100.00;96225.59;5022301;27;102313;-66
2022/11/29 11:38:32;;;;;;;3.37;3.07;;;;;;;6.25;100.00;96228.69;5033322;27;101810;-66
2022/11/29 11:41:18;;;;;;;3.70;3.40;;;;;;;6.29;100.00;96220.09;5031636;28;105096;-66
2022/11/29 11:43:59;;;;;;;11.67;10.00;;;;;;;6.40;100.00;96227.25;5032590;27;102745;-66
2022/11/29 11:46:48;;;;;;;7.13;6.43;;;;;;;6.52;100.00;96230.69;5030670;28;101826;-66
2022/11/29 11:49:25;;;;;;;3.90;3.60;;;;;;;6.52;100.00;96224.59;5033150;27;102609;-66
2022/11/29 11:51:57;;;;;;;14.17;12.67;;;;;;;6.38;100.00;96226.63;5032644;27;102501;-66
2022/11/29 11:54:24;;;;;;;12.00;10.67;;;;;;;6.17;100.00;96229.03;5031598;27;101767;-66
2022/11/29 11:56:51;;;;;;;9.60;8.63;;;;;;;6.38;100.00;96229.28;5032096;27;102856;-66
2022/11/29 11:59:23;;;;;;;6.07;4.90;;;;;;;6.54;100.00;96233.09;5035640;27;102798;-66
2022/11/29 12:01:59;;;;;;;4.77;3.50;;;;;;;6.48;100.00;96218.16;5031561;28;105317;-66
2022/11/29 12:04:33;;;;;;;6.60;5.87;;;;;;;6.50;100.00;96238.00;5030726;28;105879;-66